createdAt,value
2019-02-18T00:03:07.105Z,4.15
2019-02-18T00:08:06.967Z,4.07
2019-02-18T00:13:07.118Z,4.01
2019-02-18T00:17:06.400Z,3.88
2019-02-18T00:22:06.567Z,3.79
2019-02-18T00:27:06.331Z,3.6
2019-02-18T00:32:06.030Z,3.58
2019-02-18T00:37:07.198Z,3.8
2019-02-18T00:42:06.141Z,3.88
2019-02-18T00:47:06.237Z,3.72
2019-02-18T00:52:06.069Z,3.7
2019-02-18T00:56:06.980Z,3.54
2019-02-18T01:01:06.114Z,3.58
2019-02-18T01:06:06.937Z,3.53
2019-02-18T01:11:06.192Z,3.42
2019-02-18T01:16:06.695Z,3.38
2019-02-18T01:21:06.578Z,3.42
2019-02-18T01:26:06.249Z,3.41
2019-02-18T01:30:07.703Z,3.38
2019-02-18T01:35:07.118Z,3.24
2019-02-18T01:40:06.294Z,3.13
2019-02-18T01:45:07.992Z,3.03
2019-02-18T01:50:06.283Z,3.02
2019-02-18T01:55:06.115Z,2.94
2019-02-18T02:00:08.799Z,2.91
2019-02-18T02:05:09.521Z,2.71
2019-02-18T02:09:08.312Z,2.55
2019-02-18T02:14:07.576Z,2.34
2019-02-18T02:19:06.447Z,2.03
2019-02-18T02:24:06.197Z,1.92
2019-02-18T02:29:07.040Z,1.84
2019-02-18T02:34:06.674Z,1.5
2019-02-18T02:39:06.793Z,1.24
2019-02-18T02:43:07.014Z,1.42
2019-02-18T02:48:07.189Z,1.5
2019-02-18T02:53:06.995Z,1.25
2019-02-18T02:58:06.796Z,1.45
2019-02-18T03:03:06.440Z,1.28
2019-02-18T03:08:06.152Z,1.32
2019-02-18T03:13:06.370Z,1.04
2019-02-18T03:18:06.117Z,0.94
2019-02-18T03:22:06.969Z,1.06
2019-02-18T03:27:06.781Z,0.99
2019-02-18T03:32:07.040Z,1.03
2019-02-18T03:37:06.152Z,1.43
2019-02-18T03:42:06.425Z,1.52
2019-02-18T03:47:07.010Z,1.45
2019-02-18T03:52:06.810Z,1.34
2019-02-18T03:57:06.625Z,1.02
2019-02-18T04:01:06.810Z,1.46
2019-02-18T04:06:06.830Z,1.25
2019-02-18T04:11:06.209Z,1.21
2019-02-18T04:16:06.957Z,1.36
2019-02-18T04:21:06.822Z,1.56
2019-02-18T04:26:06.650Z,1.47
2019-02-18T04:31:07.215Z,1.24
2019-02-18T04:35:06.681Z,0.98
2019-02-18T04:40:06.395Z,0.79
2019-02-18T04:45:08.270Z,0.83
2019-02-18T04:50:06.776Z,0.23
2019-02-18T04:55:07.029Z,-0.73
2019-02-18T05:00:08.906Z,-1.26
2019-02-18T05:05:06.032Z,-1.55
2019-02-18T05:09:06.499Z,-1.64
2019-02-18T05:14:06.685Z,-1.41
2019-02-18T05:19:06.094Z,-1.12
2019-02-18T05:24:06.425Z,-1.34
2019-02-18T05:29:06.659Z,-1.06
2019-02-18T05:34:06.260Z,-1.04
2019-02-18T05:39:17.321Z,-1.43
2019-02-18T05:43:06.449Z,-1.78
2019-02-18T05:48:06.564Z,-2.01
2019-02-18T05:53:06.309Z,-1.78
2019-02-18T05:58:06.062Z,-2.01
2019-02-18T06:03:06.535Z,-2.31
2019-02-18T06:08:07.382Z,-2.42
2019-02-18T06:13:06.621Z,-1.9
2019-02-18T06:18:07.319Z,-1.55
2019-02-18T06:22:06.825Z,-1.69
2019-02-18T06:27:06.664Z,-1.75
2019-02-18T06:32:06.480Z,-1.94
2019-02-18T06:37:07.275Z,-2.07
2019-02-18T06:42:06.508Z,-2.32
2019-02-18T06:47:07.123Z,-2.37
2019-02-18T06:52:06.989Z,-2.37
2019-02-18T06:57:06.785Z,-2.24
2019-02-18T07:01:06.975Z,-2.06
2019-02-18T07:06:06.783Z,-1.67
2019-02-18T07:11:07.181Z,-0.42
2019-02-18T07:16:06.968Z,0.71
2019-02-18T07:21:08.472Z,1.6
2019-02-18T07:26:06.903Z,2.56
2019-02-18T07:31:06.752Z,3.62
2019-02-18T07:36:06.102Z,4.76
2019-02-18T07:41:06.515Z,4.97
2019-02-18T07:45:08.169Z,6.08
2019-02-18T07:50:06.306Z,5.78
2019-02-18T07:55:07.304Z,6.24
2019-02-18T08:00:08.902Z,7.25
2019-02-18T08:05:06.197Z,8.36
2019-02-18T08:10:11.952Z,8.16
2019-02-18T08:15:07.489Z,8.08
2019-02-18T08:19:06.922Z,8.02
2019-02-18T08:24:06.984Z,8.73
2019-02-18T08:29:06.595Z,9.85
2019-02-18T08:34:07.074Z,10.98
2019-02-18T08:39:07.111Z,10.48
2019-02-18T08:44:06.922Z,9.7
2019-02-18T08:49:07.093Z,10.36
2019-02-18T08:54:07.002Z,10.45
2019-02-18T08:59:06.466Z,10.43
2019-02-18T09:03:06.694Z,10.53
2019-02-18T09:08:07.309Z,11
2019-02-18T09:13:07.311Z,11.2
2019-02-18T09:18:06.746Z,11.72
2019-02-18T09:23:06.462Z,11.63
2019-02-18T09:28:07.151Z,12.51
2019-02-18T09:33:06.711Z,12.33
2019-02-18T09:37:06.266Z,12.42
2019-02-18T09:42:07.234Z,13.56
2019-02-18T09:43:06.656Z,13.56
2019-02-18T09:47:06.876Z,14.15
2019-02-18T09:52:06.570Z,13.63
2019-02-18T09:57:06.188Z,13.33
2019-02-18T10:02:07.344Z,13.7
2019-02-18T10:07:06.932Z,13.31
2019-02-18T10:12:17.732Z,13.23
2019-02-18T10:16:06.056Z,13.41
2019-02-18T10:21:06.848Z,14.33
2019-02-18T10:26:06.619Z,14.14
2019-02-18T10:31:06.292Z,14.26
2019-02-18T10:36:05.994Z,14.26
2019-02-18T10:41:07.126Z,14.69
2019-02-18T10:46:06.088Z,14.51
2019-02-18T10:51:06.825Z,15.48
2019-02-18T10:56:06.600Z,16.6
2019-02-18T11:00:08.084Z,15.22
2019-02-18T11:05:06.607Z,15.32
2019-02-18T11:10:06.719Z,15.28
2019-02-18T11:15:07.440Z,16.05
2019-02-18T11:20:06.360Z,15.17
2019-02-18T11:25:06.112Z,15.55
2019-02-18T11:30:08.993Z,16.01
2019-02-18T11:35:06.171Z,15.57
2019-02-18T11:39:06.369Z,16.08
2019-02-18T11:44:07.134Z,15.96
2019-02-18T11:49:06.513Z,17.51
2019-02-18T11:54:06.372Z,17.08
2019-02-18T11:59:06.413Z,16.84
2019-02-18T12:04:06.205Z,17.41
2019-02-18T12:09:06.983Z,17.84
2019-02-18T12:14:06.405Z,17.85
2019-02-18T12:19:07.230Z,17.67
2019-02-18T12:23:06.796Z,17.44
2019-02-18T12:28:06.834Z,17.37
2019-02-18T12:33:06.135Z,17.5
2019-02-18T12:38:06.390Z,17.55
2019-02-18T12:43:06.369Z,17.09
2019-02-18T12:48:07.758Z,17.21
2019-02-18T12:53:06.891Z,17.15
2019-02-18T12:58:07.083Z,16.9
2019-02-18T13:03:07.053Z,17.59
2019-02-18T13:07:06.010Z,17.01
2019-02-18T13:12:06.801Z,17.37
2019-02-18T13:17:06.193Z,17.39
2019-02-18T13:22:06.599Z,17.72
2019-02-18T13:27:06.037Z,17.18
2019-02-18T13:32:07.339Z,17.19
2019-02-18T13:37:06.881Z,17.05
2019-02-18T13:42:08.199Z,17.38
2019-02-18T13:46:06.640Z,18.11
2019-02-18T13:51:06.982Z,17.46
2019-02-18T13:56:06.667Z,17.19
2019-02-18T14:01:06.576Z,17.91
2019-02-18T14:06:06.232Z,18.09
2019-02-18T14:11:07.112Z,18.09
2019-02-18T14:16:06.568Z,18.19
2019-02-18T14:21:07.066Z,17.59
2019-02-18T14:25:06.849Z,17.76
2019-02-18T14:30:09.006Z,18.11
2019-02-18T14:31:06.739Z,18.11
2019-02-18T14:35:06.360Z,18.1
2019-02-18T14:40:07.039Z,18.29
2019-02-18T14:45:07.824Z,17.58
2019-02-18T14:50:07.352Z,16.87
2019-02-18T14:55:06.945Z,16.48
2019-02-18T15:00:09.002Z,16.29
2019-02-18T15:04:06.635Z,15.76
2019-02-18T15:09:07.148Z,15.23
2019-02-18T15:14:06.948Z,15.97
2019-02-18T15:19:07.346Z,15.41
2019-02-18T15:24:06.856Z,15.15
2019-02-18T15:29:07.019Z,15.12
2019-02-18T15:34:06.325Z,15.31
2019-02-18T15:39:07.028Z,14.5
2019-02-18T15:43:06.678Z,13.74
2019-02-18T15:48:07.010Z,13.04
2019-02-18T15:53:06.624Z,12.93
2019-02-18T15:58:06.237Z,12.9
2019-02-18T16:03:07.200Z,12.36
2019-02-18T16:08:07.060Z,11.78
2019-02-18T16:12:06.536Z,11.39
2019-02-18T16:17:06.590Z,11.02
2019-02-18T16:22:07.488Z,10.69
2019-02-18T16:27:06.500Z,10.25
2019-02-18T16:32:07.963Z,9.82
2019-02-18T16:37:06.911Z,9.05
2019-02-18T16:41:07.915Z,8.36
2019-02-18T16:46:07.885Z,7.62
2019-02-18T16:51:06.415Z,7.04
2019-02-18T16:56:06.623Z,6.59
2019-02-18T17:01:06.779Z,6.49
2019-02-18T17:06:06.055Z,6.51
2019-02-18T17:11:06.770Z,5.97
2019-02-18T17:15:07.513Z,5.42
2019-02-18T17:20:08.761Z,4.83
2019-02-18T17:21:06.496Z,4.83
2019-02-18T17:25:06.038Z,4.74
2019-02-18T17:30:08.403Z,5.56
2019-02-18T17:35:06.691Z,5.94
2019-02-18T17:40:07.335Z,5.19
2019-02-18T17:45:08.183Z,4.39
2019-02-18T17:49:06.746Z,3.7
2019-02-18T17:54:06.318Z,3.25
2019-02-18T17:59:06.796Z,3.11
2019-02-18T18:04:07.537Z,4.13
2019-02-18T18:09:06.518Z,5.77
2019-02-18T18:14:06.682Z,5.7
2019-02-18T18:19:09.229Z,4.62
2019-02-18T18:23:06.441Z,4.18
2019-02-18T18:28:06.585Z,3.99
2019-02-18T18:33:06.263Z,3.27
2019-02-18T18:38:07.467Z,2.7
2019-02-18T18:43:06.496Z,2.19
2019-02-18T18:48:06.453Z,1.75
2019-02-18T18:53:06.382Z,1.6
2019-02-18T18:57:06.225Z,1.79
2019-02-18T19:02:06.361Z,1.76
2019-02-18T19:07:06.475Z,1.64
2019-02-18T19:12:06.341Z,1.31
2019-02-18T19:17:07.307Z,1.22
2019-02-18T19:22:06.688Z,1.28
2019-02-18T19:27:06.906Z,0.96
2019-02-18T19:31:07.275Z,0.94
2019-02-18T19:36:07.240Z,1.76
2019-02-18T19:41:06.780Z,2.11
2019-02-18T19:46:06.811Z,1.76
2019-02-18T19:51:06.926Z,1.66
2019-02-18T19:56:06.694Z,1.77
2019-02-18T20:01:06.649Z,1.34
2019-02-18T20:05:06.734Z,0.89
2019-02-18T20:10:07.091Z,0.74
2019-02-18T20:15:08.274Z,0.51
2019-02-18T20:20:06.762Z,2.08
2019-02-18T20:25:06.951Z,3.71
2019-02-18T20:30:08.061Z,4.21
2019-02-18T20:35:06.490Z,4.62
2019-02-18T20:40:06.701Z,4.86
2019-02-18T20:44:07.592Z,4.96
2019-02-18T20:49:06.905Z,5
2019-02-18T20:54:06.372Z,5.15
2019-02-18T20:59:06.500Z,4.82
2019-02-18T21:04:06.679Z,4.76
2019-02-18T21:09:06.497Z,4.74
2019-02-18T21:14:06.601Z,4.69
2019-02-18T21:18:07.002Z,4.82
2019-02-18T21:23:06.887Z,4.79
2019-02-18T21:24:06.362Z,4.79
2019-02-18T21:28:08.094Z,4.01
2019-02-18T21:33:06.706Z,3.38
2019-02-18T21:38:07.001Z,2.91
2019-02-18T21:43:06.218Z,3.49
2019-02-18T21:48:06.995Z,4.03
2019-02-18T21:53:06.233Z,4.41
2019-02-18T21:58:06.488Z,4.05
2019-02-18T22:02:06.694Z,3.64
2019-02-18T22:07:06.862Z,2.8
2019-02-18T22:12:06.508Z,1.93
2019-02-18T22:17:06.566Z,1.38
2019-02-18T22:22:06.205Z,0.92
2019-02-18T22:27:07.333Z,1.55
2019-02-18T22:32:06.372Z,1.38
2019-02-18T22:36:06.238Z,0.98
2019-02-18T22:41:06.641Z,0.46
2019-02-18T22:46:06.939Z,0.37
2019-02-18T22:51:07.093Z,1.27
2019-02-18T22:56:06.544Z,2.05
2019-02-18T23:01:06.347Z,1.37
2019-02-18T23:06:06.594Z,1.02
2019-02-18T23:10:06.799Z,0.49
2019-02-18T23:15:08.757Z,0.66
2019-02-18T23:16:06.177Z,0.66
2019-02-18T23:20:06.099Z,0.63
2019-02-18T23:25:06.791Z,0.93
2019-02-18T23:30:08.136Z,0.4
2019-02-18T23:35:06.862Z,0.81
2019-02-18T23:40:06.729Z,1.01
2019-02-18T23:45:07.918Z,0.74
2019-02-18T23:49:07.278Z,0.38
2019-02-18T23:54:06.437Z,0.72
2019-02-18T23:59:06.975Z,1.04
